sensor_id;sensor_type;location;lat;lon;timestamp;P1;durP1;ratioP1;P2;durP2;ratioP2
32365;SDS011;18837;46.832;16.838;2022-08-19T00:00:20;4.27;;;1.70;;
32365;SDS011;18837;46.832;16.838;2022-08-19T00:02:46;4.50;;;1.93;;
32365;SDS011;18837;46.832;16.838;2022-08-19T00:05:13;2.43;;;1.80;;
32365;SDS011;18837;46.832;16.838;2022-08-19T00:07:40;4.03;;;1.80;;
32365;SDS011;18837;46.832;16.838;2022-08-19T00:10:13;3.70;;;2.00;;
32365;SDS011;18837;46.832;16.838;2022-08-19T00:12:40;4.33;;;1.63;;
32365;SDS011;18837;46.832;16.838;2022-08-19T00:15:08;3.00;;;1.50;;
32365;SDS011;18837;46.832;16.838;2022-08-19T00:17:41;4.13;;;2.00;;
32365;SDS011;18837;46.832;16.838;2022-08-19T00:20:09;3.13;;;1.70;;
32365;SDS011;18837;46.832;16.838;2022-08-19T00:22:37;3.47;;;1.57;;
32365;SDS011;18837;46.832;16.838;2022-08-19T00:25:06;3.70;;;1.50;;
32365;SDS011;18837;46.832;16.838;2022-08-19T00:27:32;4.10;;;1.50;;
32365;SDS011;18837;46.832;16.838;2022-08-19T00:29:58;4.27;;;1.93;;
32365;SDS011;18837;46.832;16.838;2022-08-19T00:32:25;3.40;;;1.73;;
32365;SDS011;18837;46.832;16.838;2022-08-19T00:34:51;4.60;;;2.03;;
32365;SDS011;18837;46.832;16.838;2022-08-19T00:37:18;6.40;;;1.90;;
32365;SDS011;18837;46.832;16.838;2022-08-19T00:39:47;2.73;;;2.10;;
32365;SDS011;18837;46.832;16.838;2022-08-19T00:42:15;3.83;;;1.77;;
32365;SDS011;18837;46.832;16.838;2022-08-19T00:44:40;5.40;;;1.80;;
32365;SDS011;18837;46.832;16.838;2022-08-19T00:47:08;3.53;;;1.97;;
32365;SDS011;18837;46.832;16.838;2022-08-19T00:49:35;4.40;;;1.90;;
32365;SDS011;18837;46.832;16.838;2022-08-19T00:52:09;4.00;;;1.80;;
32365;SDS011;18837;46.832;16.838;2022-08-19T00:54:39;3.20;;;1.57;;
32365;SDS011;18837;46.832;16.838;2022-08-19T00:57:06;2.17;;;1.63;;
32365;SDS011;18837;46.832;16.838;2022-08-19T00:59:37;3.07;;;1.70;;
32365;SDS011;18837;46.832;16.838;2022-08-19T01:02:08;5.13;;;1.70;;
32365;SDS011;18837;46.832;16.838;2022-08-19T01:04:34;3.43;;;1.57;;
32365;SDS011;18837;46.832;16.838;2022-08-19T01:06:59;4.37;;;1.80;;
32365;SDS011;18837;46.832;16.838;2022-08-19T01:09:26;3.87;;;1.87;;
32365;SDS011;18837;46.832;16.838;2022-08-19T01:11:52;4.77;;;1.97;;
32365;SDS011;18837;46.832;16.838;2022-08-19T01:14:18;4.67;;;1.73;;
32365;SDS011;18837;46.832;16.838;2022-08-19T01:16:50;2.33;;;1.70;;
32365;SDS011;18837;46.832;16.838;2022-08-19T01:19:31;4.53;;;1.80;;
32365;SDS011;18837;46.832;16.838;2022-08-19T01:22:02;3.63;;;1.70;;
32365;SDS011;18837;46.832;16.838;2022-08-19T01:24:29;5.33;;;2.10;;
32365;SDS011;18837;46.832;16.838;2022-08-19T01:26:55;4.63;;;1.63;;
32365;SDS011;18837;46.832;16.838;2022-08-19T01:29:22;3.00;;;1.63;;
32365;SDS011;18837;46.832;16.838;2022-08-19T01:31:47;4.80;;;1.83;;
32365;SDS011;18837;46.832;16.838;2022-08-19T01:34:15;3.07;;;1.90;;
32365;SDS011;18837;46.832;16.838;2022-08-19T01:36:42;3.93;;;1.97;;
32365;SDS011;18837;46.832;16.838;2022-08-19T01:39:15;4.23;;;2.03;;
32365;SDS011;18837;46.832;16.838;2022-08-19T01:41:45;4.40;;;2.30;;
32365;SDS011;18837;46.832;16.838;2022-08-19T01:44:11;4.90;;;1.83;;
32365;SDS011;18837;46.832;16.838;2022-08-19T01:46:37;3.60;;;1.70;;
32365;SDS011;18837;46.832;16.838;2022-08-19T01:49:04;4.63;;;2.20;;
32365;SDS011;18837;46.832;16.838;2022-08-19T01:51:31;3.67;;;1.90;;
32365;SDS011;18837;46.832;16.838;2022-08-19T01:53:57;2.30;;;1.47;;
32365;SDS011;18837;46.832;16.838;2022-08-19T01:56:23;4.60;;;1.80;;
32365;SDS011;18837;46.832;16.838;2022-08-19T01:58:51;5.23;;;1.83;;
32365;SDS011;18837;46.832;16.838;2022-08-19T02:01:20;3.77;;;1.90;;
32365;SDS011;18837;46.832;16.838;2022-08-19T02:03:46;4.40;;;2.00;;
32365;SDS011;18837;46.832;16.838;2022-08-19T02:06:12;3.27;;;1.90;;
32365;SDS011;18837;46.832;16.838;2022-08-19T02:08:38;3.77;;;1.77;;
32365;SDS011;18837;46.832;16.838;2022-08-19T02:11:05;3.23;;;1.80;;
32365;SDS011;18837;46.832;16.838;2022-08-19T02:13:32;4.90;;;1.90;;
32365;SDS011;18837;46.832;16.838;2022-08-19T02:15:58;2.80;;;1.83;;
32365;SDS011;18837;46.832;16.838;2022-08-19T02:18:24;4.33;;;1.90;;
32365;SDS011;18837;46.832;16.838;2022-08-19T02:20:51;3.10;;;1.80;;
32365;SDS011;18837;46.832;16.838;2022-08-19T02:23:17;3.70;;;1.60;;
32365;SDS011;18837;46.832;16.838;2022-08-19T02:25:44;4.37;;;1.90;;
32365;SDS011;18837;46.832;16.838;2022-08-19T02:28:13;5.87;;;1.90;;
32365;SDS011;18837;46.832;16.838;2022-08-19T02:30:40;4.47;;;1.67;;
32365;SDS011;18837;46.832;16.838;2022-08-19T02:33:06;2.13;;;1.60;;
32365;SDS011;18837;46.832;16.838;2022-08-19T02:35:31;4.37;;;1.90;;
32365;SDS011;18837;46.832;16.838;2022-08-19T02:37:57;3.20;;;1.57;;
32365;SDS011;18837;46.832;16.838;2022-08-19T02:40:47;2.97;;;1.87;;
32365;SDS011;18837;46.832;16.838;2022-08-19T02:43:16;4.67;;;1.90;;
32365;SDS011;18837;46.832;16.838;2022-08-19T02:45:42;5.07;;;2.20;;
32365;SDS011;18837;46.832;16.838;2022-08-19T02:48:08;4.60;;;1.73;;
32365;SDS011;18837;46.832;16.838;2022-08-19T02:50:36;3.77;;;1.50;;
32365;SDS011;18837;46.832;16.838;2022-08-19T02:53:03;5.23;;;1.73;;
32365;SDS011;18837;46.832;16.838;2022-08-19T02:55:28;4.57;;;2.00;;
32365;SDS011;18837;46.832;16.838;2022-08-19T02:57:54;5.07;;;1.70;;
32365;SDS011;18837;46.832;16.838;2022-08-19T03:00:20;4.00;;;1.60;;
32365;SDS011;18837;46.832;16.838;2022-08-19T03:02:45;3.43;;;1.90;;
32365;SDS011;18837;46.832;16.838;2022-08-19T03:05:11;4.17;;;2.07;;
32365;SDS011;18837;46.832;16.838;2022-08-19T03:07:38;2.67;;;1.60;;
32365;SDS011;18837;46.832;16.838;2022-08-19T03:10:04;2.73;;;1.73;;
32365;SDS011;18837;46.832;16.838;2022-08-19T03:12:30;3.67;;;1.77;;
32365;SDS011;18837;46.832;16.838;2022-08-19T03:14:56;3.93;;;2.10;;
32365;SDS011;18837;46.832;16.838;2022-08-19T03:17:22;2.77;;;1.80;;
32365;SDS011;18837;46.832;16.838;2022-08-19T03:19:48;3.47;;;1.83;;
32365;SDS011;18837;46.832;16.838;2022-08-19T03:22:14;2.73;;;1.77;;
32365;SDS011;18837;46.832;16.838;2022-08-19T03:24:39;2.97;;;1.80;;
32365;SDS011;18837;46.832;16.838;2022-08-19T03:27:05;4.00;;;2.10;;
32365;SDS011;18837;46.832;16.838;2022-08-19T03:29:31;6.40;;;2.10;;
32365;SDS011;18837;46.832;16.838;2022-08-19T03:32:00;4.33;;;1.80;;
32365;SDS011;18837;46.832;16.838;2022-08-19T03:34:30;3.27;;;1.63;;
32365;SDS011;18837;46.832;16.838;2022-08-19T03:37:01;3.53;;;1.80;;
32365;SDS011;18837;46.832;16.838;2022-08-19T03:39:30;5.70;;;2.00;;
32365;SDS011;18837;46.832;16.838;2022-08-19T03:41:56;2.97;;;1.90;;
32365;SDS011;18837;46.832;16.838;2022-08-19T03:44:23;4.73;;;2.17;;
32365;SDS011;18837;46.832;16.838;2022-08-19T03:46:50;4.90;;;1.70;;
32365;SDS011;18837;46.832;16.838;2022-08-19T03:49:21;2.57;;;1.77;;
32365;SDS011;18837;46.832;16.838;2022-08-19T03:51:49;3.83;;;1.97;;
32365;SDS011;18837;46.832;16.838;2022-08-19T03:54:18;6.17;;;2.23;;
32365;SDS011;18837;46.832;16.838;2022-08-19T03:56:47;4.53;;;1.73;;
32365;SDS011;18837;46.832;16.838;2022-08-19T03:59:15;4.07;;;2.10;;
32365;SDS011;18837;46.832;16.838;2022-08-19T04:01:44;3.33;;;1.93;;
32365;SDS011;18837;46.832;16.838;2022-08-19T04:04:10;2.80;;;1.90;;
32365;SDS011;18837;46.832;16.838;2022-08-19T04:06:37;2.90;;;1.60;;
32365;SDS011;18837;46.832;16.838;2022-08-19T04:09:04;4.20;;;2.10;;
32365;SDS011;18837;46.832;16.838;2022-08-19T04:11:37;3.53;;;1.80;;
32365;SDS011;18837;46.832;16.838;2022-08-19T04:14:09;4.90;;;2.07;;
32365;SDS011;18837;46.832;16.838;2022-08-19T04:16:37;3.73;;;1.90;;
32365;SDS011;18837;46.832;16.838;2022-08-19T04:19:03;2.60;;;1.77;;
32365;SDS011;18837;46.832;16.838;2022-08-19T04:21:31;3.37;;;1.80;;
32365;SDS011;18837;46.832;16.838;2022-08-19T04:23:58;5.20;;;1.67;;
32365;SDS011;18837;46.832;16.838;2022-08-19T04:26:28;5.67;;;2.03;;
32365;SDS011;18837;46.832;16.838;2022-08-19T04:28:57;5.73;;;1.73;;
32365;SDS011;18837;46.832;16.838;2022-08-19T04:31:29;5.23;;;2.03;;
32365;SDS011;18837;46.832;16.838;2022-08-19T04:33:58;2.97;;;1.97;;
32365;SDS011;18837;46.832;16.838;2022-08-19T04:36:26;3.10;;;1.97;;
32365;SDS011;18837;46.832;16.838;2022-08-19T04:38:59;2.10;;;1.70;;
32365;SDS011;18837;46.832;16.838;2022-08-19T04:41:28;3.73;;;1.83;;
32365;SDS011;18837;46.832;16.838;2022-08-19T04:44:13;3.83;;;1.70;;
32365;SDS011;18837;46.832;16.838;2022-08-19T04:46:38;2.93;;;2.03;;
32365;SDS011;18837;46.832;16.838;2022-08-19T04:49:05;4.10;;;2.33;;
32365;SDS011;18837;46.832;16.838;2022-08-19T04:51:32;4.33;;;1.87;;
32365;SDS011;18837;46.832;16.838;2022-08-19T04:53:58;3.47;;;2.00;;
32365;SDS011;18837;46.832;16.838;2022-08-19T04:56:25;4.60;;;1.80;;
32365;SDS011;18837;46.832;16.838;2022-08-19T04:58:52;3.90;;;2.13;;
32365;SDS011;18837;46.832;16.838;2022-08-19T05:01:21;1.90;;;1.60;;
32365;SDS011;18837;46.832;16.838;2022-08-19T05:03:48;4.97;;;2.07;;
32365;SDS011;18837;46.832;16.838;2022-08-19T05:06:16;4.00;;;2.07;;
32365;SDS011;18837;46.832;16.838;2022-08-19T05:08:44;3.27;;;1.87;;
32365;SDS011;18837;46.832;16.838;2022-08-19T05:11:11;5.23;;;2.10;;
32365;SDS011;18837;46.832;16.838;2022-08-19T05:13:38;2.63;;;1.60;;
32365;SDS011;18837;46.832;16.838;2022-08-19T05:16:04;2.80;;;1.70;;
32365;SDS011;18837;46.832;16.838;2022-08-19T05:18:31;4.13;;;1.63;;
32365;SDS011;18837;46.832;16.838;2022-08-19T05:21:16;3.37;;;2.10;;
32365;SDS011;18837;46.832;16.838;2022-08-19T05:24:03;4.73;;;2.10;;
32365;SDS011;18837;46.832;16.838;2022-08-19T05:26:34;3.90;;;1.97;;
32365;SDS011;18837;46.832;16.838;2022-08-19T05:29:01;3.87;;;2.00;;
32365;SDS011;18837;46.832;16.838;2022-08-19T05:31:27;6.33;;;2.10;;
32365;SDS011;18837;46.832;16.838;2022-08-19T05:33:53;3.80;;;2.20;;
32365;SDS011;18837;46.832;16.838;2022-08-19T05:36:22;4.20;;;2.13;;
32365;SDS011;18837;46.832;16.838;2022-08-19T05:38:47;5.97;;;1.90;;
32365;SDS011;18837;46.832;16.838;2022-08-19T05:41:14;4.03;;;2.10;;
32365;SDS011;18837;46.832;16.838;2022-08-19T05:43:42;3.87;;;1.90;;
32365;SDS011;18837;46.832;16.838;2022-08-19T05:46:07;4.80;;;1.80;;
32365;SDS011;18837;46.832;16.838;2022-08-19T05:48:40;5.63;;;2.30;;
32365;SDS011;18837;46.832;16.838;2022-08-19T05:51:06;2.17;;;1.60;;
32365;SDS011;18837;46.832;16.838;2022-08-19T05:53:33;3.67;;;2.17;;
32365;SDS011;18837;46.832;16.838;2022-08-19T05:56:06;3.50;;;2.07;;
32365;SDS011;18837;46.832;16.838;2022-08-19T05:58:33;3.13;;;1.90;;
32365;SDS011;18837;46.832;16.838;2022-08-19T06:01:00;2.87;;;1.97;;
32365;SDS011;18837;46.832;16.838;2022-08-19T06:03:30;3.50;;;2.00;;
32365;SDS011;18837;46.832;16.838;2022-08-19T06:05:56;3.20;;;1.90;;
32365;SDS011;18837;46.832;16.838;2022-08-19T06:08:24;3.83;;;2.10;;
32365;SDS011;18837;46.832;16.838;2022-08-19T06:14:09;7.70;;;3.60;;
32365;SDS011;18837;46.832;16.838;2022-08-19T06:16:39;12.50;;;6.53;;
32365;SDS011;18837;46.832;16.838;2022-08-19T06:19:07;7.87;;;4.57;;
32365;SDS011;18837;46.832;16.838;2022-08-19T06:21:36;13.30;;;4.10;;
32365;SDS011;18837;46.832;16.838;2022-08-19T06:24:04;7.97;;;3.40;;
32365;SDS011;18837;46.832;16.838;2022-08-19T06:26:33;14.43;;;3.57;;
32365;SDS011;18837;46.832;16.838;2022-08-19T06:29:00;9.77;;;3.67;;
32365;SDS011;18837;46.832;16.838;2022-08-19T06:31:27;10.33;;;3.60;;
32365;SDS011;18837;46.832;16.838;2022-08-19T06:33:53;11.03;;;3.43;;
32365;SDS011;18837;46.832;16.838;2022-08-19T06:36:24;10.97;;;3.67;;
32365;SDS011;18837;46.832;16.838;2022-08-19T06:38:59;9.87;;;3.33;;
32365;SDS011;18837;46.832;16.838;2022-08-19T06:41:38;9.20;;;3.80;;
32365;SDS011;18837;46.832;16.838;2022-08-19T06:44:06;13.03;;;3.73;;
32365;SDS011;18837;46.832;16.838;2022-08-19T06:46:33;11.80;;;3.47;;
32365;SDS011;18837;46.832;16.838;2022-08-19T06:49:00;7.80;;;3.37;;
32365;SDS011;18837;46.832;16.838;2022-08-19T06:51:26;11.47;;;3.17;;
32365;SDS011;18837;46.832;16.838;2022-08-19T06:53:52;8.13;;;3.03;;
32365;SDS011;18837;46.832;16.838;2022-08-19T06:56:20;8.70;;;3.10;;
32365;SDS011;18837;46.832;16.838;2022-08-19T06:58:50;11.63;;;3.20;;
32365;SDS011;18837;46.832;16.838;2022-08-19T07:01:17;7.43;;;3.13;;
32365;SDS011;18837;46.832;16.838;2022-08-19T07:03:44;7.30;;;3.43;;
32365;SDS011;18837;46.832;16.838;2022-08-19T07:06:12;6.23;;;3.00;;
32365;SDS011;18837;46.832;16.838;2022-08-19T07:08:40;6.03;;;2.67;;
32365;SDS011;18837;46.832;16.838;2022-08-19T07:11:08;4.67;;;2.73;;
32365;SDS011;18837;46.832;16.838;2022-08-19T07:13:36;6.00;;;3.07;;
32365;SDS011;18837;46.832;16.838;2022-08-19T07:16:04;9.67;;;2.80;;
32365;SDS011;18837;46.832;16.838;2022-08-19T07:18:30;10.87;;;3.10;;
32365;SDS011;18837;46.832;16.838;2022-08-19T07:23:53;8.10;;;2.87;;
32365;SDS011;18837;46.832;16.838;2022-08-19T07:26:30;5.60;;;2.50;;
32365;SDS011;18837;46.832;16.838;2022-08-19T07:29:03;5.30;;;2.50;;
32365;SDS011;18837;46.832;16.838;2022-08-19T07:31:30;8.33;;;2.80;;
32365;SDS011;18837;46.832;16.838;2022-08-19T07:33:56;5.37;;;2.57;;
32365;SDS011;18837;46.832;16.838;2022-08-19T07:36:24;5.77;;;2.60;;
32365;SDS011;18837;46.832;16.838;2022-08-19T07:38:57;4.63;;;2.60;;
32365;SDS011;18837;46.832;16.838;2022-08-19T07:41:27;6.23;;;2.70;;
32365;SDS011;18837;46.832;16.838;2022-08-19T07:43:56;10.03;;;3.07;;
32365;SDS011;18837;46.832;16.838;2022-08-19T07:46:26;5.47;;;3.03;;
32365;SDS011;18837;46.832;16.838;2022-08-19T07:48:53;5.57;;;2.77;;
32365;SDS011;18837;46.832;16.838;2022-08-19T07:51:20;6.53;;;2.57;;
32365;SDS011;18837;46.832;16.838;2022-08-19T07:53:51;8.23;;;2.87;;
32365;SDS011;18837;46.832;16.838;2022-08-19T07:56:18;4.03;;;2.37;;
32365;SDS011;18837;46.832;16.838;2022-08-19T07:58:45;7.50;;;2.70;;
32365;SDS011;18837;46.832;16.838;2022-08-19T08:01:16;5.77;;;2.60;;
32365;SDS011;18837;46.832;16.838;2022-08-19T08:03:49;6.57;;;2.70;;
32365;SDS011;18837;46.832;16.838;2022-08-19T08:06:35;6.47;;;2.57;;
32365;SDS011;18837;46.832;16.838;2022-08-19T08:09:24;7.13;;;2.73;;
32365;SDS011;18837;46.832;16.838;2022-08-19T08:11:54;7.50;;;2.93;;
32365;SDS011;18837;46.832;16.838;2022-08-19T08:14:30;6.87;;;2.50;;
32365;SDS011;18837;46.832;16.838;2022-08-19T08:17:01;6.40;;;2.40;;
32365;SDS011;18837;46.832;16.838;2022-08-19T08:19:28;4.17;;;2.47;;
32365;SDS011;18837;46.832;16.838;2022-08-19T08:21:56;5.17;;;2.27;;
32365;SDS011;18837;46.832;16.838;2022-08-19T08:24:24;4.17;;;2.07;;
32365;SDS011;18837;46.832;16.838;2022-08-19T08:26:51;5.77;;;2.60;;
32365;SDS011;18837;46.832;16.838;2022-08-19T08:29:18;3.87;;;2.30;;
32365;SDS011;18837;46.832;16.838;2022-08-19T08:31:45;4.23;;;2.53;;
32365;SDS011;18837;46.832;16.838;2022-08-19T08:34:11;4.00;;;2.07;;
32365;SDS011;18837;46.832;16.838;2022-08-19T08:36:39;4.70;;;2.70;;
32365;SDS011;18837;46.832;16.838;2022-08-19T08:39:11;5.63;;;2.50;;
32365;SDS011;18837;46.832;16.838;2022-08-19T08:44:20;4.70;;;2.37;;
32365;SDS011;18837;46.832;16.838;2022-08-19T08:46:53;5.17;;;2.47;;
32365;SDS011;18837;46.832;16.838;2022-08-19T08:52:05;4.70;;;2.47;;
32365;SDS011;18837;46.832;16.838;2022-08-19T08:54:41;4.70;;;2.67;;
32365;SDS011;18837;46.832;16.838;2022-08-19T08:57:12;4.43;;;2.63;;
32365;SDS011;18837;46.832;16.838;2022-08-19T08:59:43;4.60;;;2.60;;
32365;SDS011;18837;46.832;16.838;2022-08-19T09:02:16;3.83;;;2.33;;
32365;SDS011;18837;46.832;16.838;2022-08-19T09:04:43;6.77;;;2.50;;
32365;SDS011;18837;46.832;16.838;2022-08-19T09:09:42;5.93;;;2.60;;
32365;SDS011;18837;46.832;16.838;2022-08-19T09:14:55;4.53;;;2.23;;
32365;SDS011;18837;46.832;16.838;2022-08-19T09:17:26;4.83;;;2.43;;
32365;SDS011;18837;46.832;16.838;2022-08-19T09:20:03;3.83;;;2.27;;
32365;SDS011;18837;46.832;16.838;2022-08-19T09:22:36;3.53;;;2.30;;
32365;SDS011;18837;46.832;16.838;2022-08-19T09:25:03;3.03;;;2.00;;
32365;SDS011;18837;46.832;16.838;2022-08-19T09:27:31;4.73;;;2.20;;
32365;SDS011;18837;46.832;16.838;2022-08-19T09:29:57;4.93;;;2.23;;
32365;SDS011;18837;46.832;16.838;2022-08-19T09:32:23;6.73;;;2.60;;
32365;SDS011;18837;46.832;16.838;2022-08-19T09:34:52;5.60;;;2.47;;
32365;SDS011;18837;46.832;16.838;2022-08-19T09:37:19;7.77;;;2.60;;
32365;SDS011;18837;46.832;16.838;2022-08-19T09:39:47;4.03;;;2.40;;
32365;SDS011;18837;46.832;16.838;2022-08-19T09:42:13;6.30;;;2.40;;
32365;SDS011;18837;46.832;16.838;2022-08-19T09:44:39;5.97;;;2.80;;
32365;SDS011;18837;46.832;16.838;2022-08-19T09:47:06;3.03;;;2.20;;
32365;SDS011;18837;46.832;16.838;2022-08-19T09:49:33;3.93;;;2.40;;
32365;SDS011;18837;46.832;16.838;2022-08-19T09:51:59;3.27;;;2.30;;
32365;SDS011;18837;46.832;16.838;2022-08-19T09:54:26;4.37;;;2.33;;
32365;SDS011;18837;46.832;16.838;2022-08-19T09:56:53;4.13;;;2.00;;
32365;SDS011;18837;46.832;16.838;2022-08-19T09:59:19;4.27;;;2.27;;
32365;SDS011;18837;46.832;16.838;2022-08-19T10:01:45;4.10;;;2.33;;
32365;SDS011;18837;46.832;16.838;2022-08-19T10:04:11;4.63;;;2.10;;
32365;SDS011;18837;46.832;16.838;2022-08-19T10:06:37;2.73;;;2.00;;
32365;SDS011;18837;46.832;16.838;2022-08-19T10:09:07;3.23;;;2.50;;
32365;SDS011;18837;46.832;16.838;2022-08-19T10:11:35;6.13;;;2.77;;
32365;SDS011;18837;46.832;16.838;2022-08-19T10:14:02;4.50;;;2.20;;
32365;SDS011;18837;46.832;16.838;2022-08-19T10:16:30;4.53;;;2.80;;
32365;SDS011;18837;46.832;16.838;2022-08-19T10:18:57;4.70;;;2.37;;
32365;SDS011;18837;46.832;16.838;2022-08-19T10:21:25;3.47;;;2.20;;
32365;SDS011;18837;46.832;16.838;2022-08-19T10:23:54;5.13;;;2.10;;
32365;SDS011;18837;46.832;16.838;2022-08-19T10:26:26;4.37;;;2.47;;
32365;SDS011;18837;46.832;16.838;2022-08-19T10:28:56;5.70;;;2.27;;
32365;SDS011;18837;46.832;16.838;2022-08-19T10:31:24;3.80;;;2.27;;
32365;SDS011;18837;46.832;16.838;2022-08-19T10:33:54;6.20;;;2.90;;
32365;SDS011;18837;46.832;16.838;2022-08-19T10:36:25;5.77;;;2.73;;
32365;SDS011;18837;46.832;16.838;2022-08-19T10:39:00;4.13;;;2.20;;
32365;SDS011;18837;46.832;16.838;2022-08-19T10:41:31;3.70;;;2.23;;
32365;SDS011;18837;46.832;16.838;2022-08-19T10:44:00;4.80;;;2.60;;
32365;SDS011;18837;46.832;16.838;2022-08-19T10:46:28;4.80;;;2.47;;
32365;SDS011;18837;46.832;16.838;2022-08-19T10:48:58;3.30;;;2.47;;
32365;SDS011;18837;46.832;16.838;2022-08-19T10:51:24;6.17;;;3.30;;
32365;SDS011;18837;46.832;16.838;2022-08-19T10:54:09;5.67;;;2.77;;
32365;SDS011;18837;46.832;16.838;2022-08-19T10:56:35;4.73;;;2.57;;
32365;SDS011;18837;46.832;16.838;2022-08-19T10:59:16;3.40;;;2.70;;
32365;SDS011;18837;46.832;16.838;2022-08-19T11:02:05;3.43;;;2.60;;
32365;SDS011;18837;46.832;16.838;2022-08-19T11:04:57;4.73;;;2.23;;
32365;SDS011;18837;46.832;16.838;2022-08-19T11:07:23;3.87;;;2.43;;
32365;SDS011;18837;46.832;16.838;2022-08-19T11:09:50;5.00;;;2.30;;
32365;SDS011;18837;46.832;16.838;2022-08-19T11:12:16;5.07;;;2.33;;
32365;SDS011;18837;46.832;16.838;2022-08-19T11:14:42;5.13;;;2.57;;
32365;SDS011;18837;46.832;16.838;2022-08-19T11:17:07;3.47;;;2.20;;
32365;SDS011;18837;46.832;16.838;2022-08-19T11:19:39;3.87;;;2.60;;
32365;SDS011;18837;46.832;16.838;2022-08-19T11:22:07;3.67;;;2.07;;
32365;SDS011;18837;46.832;16.838;2022-08-19T11:24:34;4.33;;;2.40;;
32365;SDS011;18837;46.832;16.838;2022-08-19T11:27:05;4.63;;;2.37;;
32365;SDS011;18837;46.832;16.838;2022-08-19T11:29:34;5.40;;;2.50;;
32365;SDS011;18837;46.832;16.838;2022-08-19T11:32:03;4.43;;;2.30;;
32365;SDS011;18837;46.832;16.838;2022-08-19T11:34:31;5.83;;;2.57;;
32365;SDS011;18837;46.832;16.838;2022-08-19T11:37:03;3.43;;;2.30;;
32365;SDS011;18837;46.832;16.838;2022-08-19T11:39:46;3.37;;;2.13;;
32365;SDS011;18837;46.832;16.838;2022-08-19T11:42:11;4.67;;;2.23;;
32365;SDS011;18837;46.832;16.838;2022-08-19T11:44:56;3.87;;;2.40;;
32365;SDS011;18837;46.832;16.838;2022-08-19T11:47:22;4.30;;;2.53;;
32365;SDS011;18837;46.832;16.838;2022-08-19T11:49:48;4.47;;;2.43;;
32365;SDS011;18837;46.832;16.838;2022-08-19T11:52:14;2.53;;;2.10;;
32365;SDS011;18837;46.832;16.838;2022-08-19T11:54:45;4.03;;;2.47;;
32365;SDS011;18837;46.832;16.838;2022-08-19T11:57:14;5.37;;;2.70;;
32365;SDS011;18837;46.832;16.838;2022-08-19T11:59:41;4.30;;;2.70;;
32365;SDS011;18837;46.832;16.838;2022-08-19T12:02:12;5.97;;;2.63;;
32365;SDS011;18837;46.832;16.838;2022-08-19T12:04:40;4.50;;;2.43;;
32365;SDS011;18837;46.832;16.838;2022-08-19T12:07:05;5.90;;;2.67;;
32365;SDS011;18837;46.832;16.838;2022-08-19T12:09:31;5.90;;;2.70;;
32365;SDS011;18837;46.832;16.838;2022-08-19T12:11:59;8.40;;;3.10;;
32365;SDS011;18837;46.832;16.838;2022-08-19T12:14:27;6.73;;;3.27;;
32365;SDS011;18837;46.832;16.838;2022-08-19T12:16:55;6.17;;;2.80;;
32365;SDS011;18837;46.832;16.838;2022-08-19T12:19:21;5.43;;;2.50;;
32365;SDS011;18837;46.832;16.838;2022-08-19T12:21:47;3.40;;;2.50;;
32365;SDS011;18837;46.832;16.838;2022-08-19T12:24:13;5.30;;;2.40;;
32365;SDS011;18837;46.832;16.838;2022-08-19T12:26:39;5.83;;;2.27;;
32365;SDS011;18837;46.832;16.838;2022-08-19T12:29:10;6.47;;;2.90;;
32365;SDS011;18837;46.832;16.838;2022-08-19T12:31:36;4.97;;;2.63;;
32365;SDS011;18837;46.832;16.838;2022-08-19T12:34:01;3.83;;;2.43;;
32365;SDS011;18837;46.832;16.838;2022-08-19T12:36:27;5.27;;;3.13;;
32365;SDS011;18837;46.832;16.838;2022-08-19T12:38:53;4.60;;;2.80;;
32365;SDS011;18837;46.832;16.838;2022-08-19T12:41:19;3.50;;;2.37;;
32365;SDS011;18837;46.832;16.838;2022-08-19T12:43:47;4.17;;;2.43;;
32365;SDS011;18837;46.832;16.838;2022-08-19T12:46:26;4.43;;;2.77;;
32365;SDS011;18837;46.832;16.838;2022-08-19T12:49:04;4.73;;;2.50;;
32365;SDS011;18837;46.832;16.838;2022-08-19T12:51:30;6.47;;;2.50;;
32365;SDS011;18837;46.832;16.838;2022-08-19T12:53:56;4.90;;;2.57;;
32365;SDS011;18837;46.832;16.838;2022-08-19T12:56:22;4.23;;;2.50;;
32365;SDS011;18837;46.832;16.838;2022-08-19T12:58:48;3.70;;;2.20;;
32365;SDS011;18837;46.832;16.838;2022-08-19T13:01:14;5.63;;;2.50;;
32365;SDS011;18837;46.832;16.838;2022-08-19T13:03:41;5.00;;;2.53;;
32365;SDS011;18837;46.832;16.838;2022-08-19T13:06:09;4.20;;;2.20;;
32365;SDS011;18837;46.832;16.838;2022-08-19T13:08:35;3.63;;;2.20;;
32365;SDS011;18837;46.832;16.838;2022-08-19T13:11:11;4.20;;;2.50;;
32365;SDS011;18837;46.832;16.838;2022-08-19T13:13:43;6.13;;;2.40;;
32365;SDS011;18837;46.832;16.838;2022-08-19T13:16:11;4.67;;;2.30;;
32365;SDS011;18837;46.832;16.838;2022-08-19T13:18:38;4.97;;;2.50;;
32365;SDS011;18837;46.832;16.838;2022-08-19T13:21:09;6.63;;;2.50;;
32365;SDS011;18837;46.832;16.838;2022-08-19T13:23:38;5.97;;;2.50;;
32365;SDS011;18837;46.832;16.838;2022-08-19T13:26:06;5.37;;;2.67;;
32365;SDS011;18837;46.832;16.838;2022-08-19T13:28:34;6.67;;;2.77;;
32365;SDS011;18837;46.832;16.838;2022-08-19T13:31:19;6.07;;;2.30;;
32365;SDS011;18837;46.832;16.838;2022-08-19T13:34:05;6.97;;;2.50;;
32365;SDS011;18837;46.832;16.838;2022-08-19T13:36:31;4.03;;;2.33;;
32365;SDS011;18837;46.832;16.838;2022-08-19T13:38:58;5.07;;;2.30;;
32365;SDS011;18837;46.832;16.838;2022-08-19T13:41:24;7.97;;;2.53;;
32365;SDS011;18837;46.832;16.838;2022-08-19T13:43:50;7.43;;;2.70;;
32365;SDS011;18837;46.832;16.838;2022-08-19T13:46:16;7.90;;;2.83;;
32365;SDS011;18837;46.832;16.838;2022-08-19T13:48:42;6.60;;;2.27;;
32365;SDS011;18837;46.832;16.838;2022-08-19T13:51:08;7.63;;;2.63;;
32365;SDS011;18837;46.832;16.838;2022-08-19T13:53:36;5.70;;;2.50;;
32365;SDS011;18837;46.832;16.838;2022-08-19T13:56:08;5.20;;;2.27;;
32365;SDS011;18837;46.832;16.838;2022-08-19T13:58:35;4.80;;;2.63;;
32365;SDS011;18837;46.832;16.838;2022-08-19T14:01:02;5.23;;;2.30;;
32365;SDS011;18837;46.832;16.838;2022-08-19T14:03:29;7.37;;;2.60;;
32365;SDS011;18837;46.832;16.838;2022-08-19T14:05:56;4.63;;;2.37;;
32365;SDS011;18837;46.832;16.838;2022-08-19T14:08:22;4.80;;;2.30;;
32365;SDS011;18837;46.832;16.838;2022-08-19T14:10:48;8.10;;;2.63;;
32365;SDS011;18837;46.832;16.838;2022-08-19T14:13:15;7.43;;;3.03;;
32365;SDS011;18837;46.832;16.838;2022-08-19T14:15:43;7.53;;;2.57;;
32365;SDS011;18837;46.832;16.838;2022-08-19T14:18:09;11.07;;;2.73;;
32365;SDS011;18837;46.832;16.838;2022-08-19T14:20:35;10.20;;;3.63;;
32365;SDS011;18837;46.832;16.838;2022-08-19T14:23:02;21.97;;;13.83;;
32365;SDS011;18837;46.832;16.838;2022-08-19T14:25:30;23.17;;;14.97;;
32365;SDS011;18837;46.832;16.838;2022-08-19T14:27:56;21.07;;;12.47;;
32365;SDS011;18837;46.832;16.838;2022-08-19T14:30:33;19.80;;;10.47;;
32365;SDS011;18837;46.832;16.838;2022-08-19T14:33:00;19.40;;;9.13;;
32365;SDS011;18837;46.832;16.838;2022-08-19T14:35:27;13.63;;;7.60;;
32365;SDS011;18837;46.832;16.838;2022-08-19T14:37:55;18.67;;;7.37;;
32365;SDS011;18837;46.832;16.838;2022-08-19T14:40:24;20.43;;;7.30;;
32365;SDS011;18837;46.832;16.838;2022-08-19T14:43:01;15.13;;;6.90;;
32365;SDS011;18837;46.832;16.838;2022-08-19T14:45:32;16.57;;;6.07;;
32365;SDS011;18837;46.832;16.838;2022-08-19T14:48:01;14.30;;;6.23;;
32365;SDS011;18837;46.832;16.838;2022-08-19T14:50:28;13.07;;;5.73;;
32365;SDS011;18837;46.832;16.838;2022-08-19T14:53:02;15.70;;;6.13;;
32365;SDS011;18837;46.832;16.838;2022-08-19T14:55:30;10.30;;;5.63;;
32365;SDS011;18837;46.832;16.838;2022-08-19T14:57:57;10.73;;;6.00;;